createdAt,value
2023-11-15T00:09:41.048Z,10.60
2023-11-15T00:19:40.027Z,10.70
2023-11-15T00:29:39.135Z,10.80
2023-11-15T00:39:39.976Z,10.60
2023-11-15T00:49:39.345Z,10.70
2023-11-15T00:59:40.534Z,10.80
2023-11-15T01:09:39.126Z,11.00
2023-11-15T01:19:38.114Z,11.00
2023-11-15T01:29:37.109Z,11.20
2023-11-15T01:39:36.077Z,11.20
2023-11-15T01:49:35.093Z,11.30
2023-11-15T01:59:34.428Z,11.30
2023-11-15T02:09:34.312Z,11.30
2023-11-15T02:19:33.503Z,11.30
2023-11-15T02:29:32.143Z,11.40
2023-11-15T02:39:31.099Z,11.40
2023-11-15T02:49:30.122Z,11.40
2023-11-15T02:59:29.167Z,11.50
2023-11-15T03:09:28.124Z,11.50
2023-11-15T03:19:27.230Z,11.50
2023-11-15T03:29:26.172Z,11.50
2023-11-15T03:39:25.151Z,11.50
2023-11-15T03:49:24.164Z,11.50
2023-11-15T03:59:23.299Z,11.50
2023-11-15T04:09:23.080Z,11.50
2023-11-15T04:19:22.267Z,11.60
2023-11-15T04:29:22.785Z,11.60
2023-11-15T04:39:21.187Z,11.50
2023-11-15T04:49:20.148Z,11.50
2023-11-15T04:59:19.186Z,11.50
2023-11-15T05:09:18.178Z,11.50
2023-11-15T05:19:17.176Z,11.50
2023-11-15T05:29:16.185Z,11.50
2023-11-15T05:39:15.228Z,11.60
2023-11-15T05:49:14.604Z,11.60
2023-11-15T05:59:13.226Z,11.60
2023-11-15T06:09:14.729Z,11.50
2023-11-15T06:19:13.185Z,11.30
2023-11-15T06:29:12.406Z,11.20
2023-11-15T06:39:12.840Z,11.10
2023-11-15T06:49:11.745Z,11.20
2023-11-15T06:59:10.352Z,11.20
2023-11-15T07:09:09.303Z,11.20
2023-11-15T07:19:08.261Z,11.30
2023-11-15T07:29:07.766Z,11.40
2023-11-15T07:39:06.333Z,11.50
2023-11-15T07:49:07.167Z,11.50
2023-11-15T07:59:06.327Z,11.60
2023-11-15T08:09:05.997Z,11.70
2023-11-15T08:19:06.924Z,11.80
2023-11-15T08:29:06.334Z,12.10
2023-11-15T08:39:07.557Z,12.30
2023-11-15T08:49:06.445Z,12.30
2023-11-15T08:59:05.338Z,12.40
2023-11-15T09:09:05.027Z,12.80
2023-11-15T09:19:05.583Z,12.90
2023-11-15T09:29:04.884Z,13.20
2023-11-15T09:39:04.397Z,13.20
2023-11-15T09:49:07.784Z,13.20
2023-11-15T09:59:04.375Z,13.10
2023-11-15T10:09:03.525Z,13.10
2023-11-15T10:19:02.376Z,13.10
2023-11-15T10:29:01.985Z,13.40
2023-11-15T10:39:02.298Z,13.70
2023-11-15T10:49:01.380Z,13.40
2023-11-15T10:59:00.689Z,13.40
2023-11-15T11:08:59.414Z,14.00
2023-11-15T11:19:00.338Z,13.70
2023-11-15T11:28:59.528Z,14.10
2023-11-15T11:38:58.417Z,13.80
2023-11-15T11:48:57.920Z,13.30
2023-11-15T11:58:56.503Z,12.70
2023-11-15T12:08:55.771Z,12.80
2023-11-15T12:18:54.416Z,12.90
2023-11-15T12:28:53.459Z,13.40
2023-11-15T12:38:52.486Z,14.20
2023-11-15T12:48:51.438Z,13.50
2023-11-15T12:58:52.189Z,13.30
2023-11-15T13:08:53.803Z,13.20
2023-11-15T13:18:52.491Z,13.20
2023-11-15T13:28:51.465Z,13.30
2023-11-15T13:38:50.553Z,13.10
2023-11-15T13:48:49.595Z,13.00
2023-11-15T13:58:48.488Z,13.20
2023-11-15T14:08:55.766Z,13.80
2023-11-15T14:18:50.589Z,14.00
2023-11-15T14:28:50.146Z,14.60
2023-11-15T14:38:50.855Z,15.20
2023-11-15T14:48:52.094Z,14.80
2023-11-15T14:58:54.075Z,14.50
2023-11-15T15:08:52.550Z,14.20
2023-11-15T15:18:52.487Z,14.10
2023-11-15T15:28:53.977Z,13.80
2023-11-15T15:38:52.601Z,13.40
2023-11-15T15:48:51.881Z,13.10
2023-11-15T15:58:50.555Z,12.00
2023-11-15T16:08:49.621Z,10.80
2023-11-15T16:18:48.579Z,10.60
2023-11-15T16:28:47.583Z,10.70
2023-11-15T16:38:47.096Z,10.70
2023-11-15T16:48:45.601Z,10.60
2023-11-15T16:58:44.631Z,10.40
2023-11-15T17:08:44.379Z,10.30
2023-11-15T17:18:43.630Z,10.30
2023-11-15T17:28:42.636Z,10.20
2023-11-15T17:38:41.615Z,10.10
2023-11-15T17:48:40.665Z,10.00
2023-11-15T17:58:39.667Z,9.90
2023-11-15T18:08:39.833Z,9.90
2023-11-15T18:18:38.780Z,9.90
2023-11-15T18:28:38.802Z,9.90
2023-11-15T18:38:37.644Z,9.90
2023-11-15T18:48:36.856Z,10.10
2023-11-15T18:58:36.780Z,10.20
2023-11-15T19:08:35.656Z,10.30
2023-11-15T19:18:34.737Z,10.30
2023-11-15T19:28:33.685Z,10.20
2023-11-15T19:38:32.648Z,10.10
2023-11-15T19:48:31.771Z,10.20
2023-11-15T19:58:32.736Z,10.30
2023-11-15T20:08:31.886Z,10.40
2023-11-15T20:18:30.946Z,10.40
2023-11-15T20:28:36.165Z,10.40
2023-11-15T20:38:31.308Z,10.30
2023-11-15T20:48:29.841Z,10.10
2023-11-15T20:58:28.733Z,10.00
2023-11-15T21:08:27.706Z,9.90
2023-11-15T21:18:26.729Z,9.80
2023-11-15T21:28:25.777Z,9.70
2023-11-15T21:38:24.886Z,9.70
2023-11-15T21:48:23.822Z,9.60
2023-11-15T21:58:22.765Z,9.50
2023-11-15T22:08:21.819Z,9.60
2023-11-15T22:18:20.843Z,9.70
2023-11-15T22:28:20.489Z,9.60
2023-11-15T22:38:19.759Z,9.50
2023-11-15T22:48:19.434Z,9.60
2023-11-15T22:58:18.805Z,9.70
2023-11-15T23:08:17.823Z,9.80
2023-11-15T23:18:18.836Z,9.80
2023-11-15T23:28:17.907Z,9.80
2023-11-15T23:38:16.778Z,9.90
2023-11-15T23:48:15.856Z,9.90
2023-11-15T23:58:16.132Z,9.90
